createdAt,value
2022-08-28T00:00:20.643Z,16.84
2022-08-28T00:02:48.263Z,16.73
2022-08-28T00:05:17.390Z,16.84
2022-08-28T00:07:47.642Z,16.71
2022-08-28T00:10:16.943Z,16.63
2022-08-28T00:12:44.669Z,16.65
2022-08-28T00:15:15.189Z,16.69
2022-08-28T00:17:42.186Z,16.65
2022-08-28T00:20:11.050Z,16.59
2022-08-28T00:22:39.241Z,16.63
2022-08-28T00:25:08.035Z,16.55
2022-08-28T00:27:52.634Z,16.55
2022-08-28T00:30:33.033Z,16.54
2022-08-28T00:33:04.878Z,16.53
2022-08-28T00:35:31.726Z,16.48
2022-08-28T00:37:58.530Z,16.47
2022-08-28T00:40:32.398Z,16.41
2022-08-28T00:43:02.049Z,16.36
2022-08-28T00:45:29.384Z,16.18
2022-08-28T00:47:56.417Z,16.27
2022-08-28T00:50:26.791Z,16.28
2022-08-28T00:52:59.826Z,16.16
2022-08-28T00:55:28.702Z,16.18
2022-08-28T00:58:00.454Z,16.11
2022-08-28T01:00:32.861Z,16.18
2022-08-28T01:03:00.491Z,16.13
2022-08-28T01:05:28.939Z,16.07
2022-08-28T01:07:59.141Z,16.07
2022-08-28T01:10:29.134Z,16.09
2022-08-28T01:12:56.921Z,16.08
2022-08-28T01:15:28.678Z,16.02
2022-08-28T01:18:03.531Z,15.99
2022-08-28T01:20:35.273Z,15.96
2022-08-28T01:23:25.158Z,15.98
2022-08-28T01:25:52.516Z,15.96
2022-08-28T01:28:19.124Z,15.90
2022-08-28T01:30:48.112Z,15.84
2022-08-28T01:33:15.906Z,15.79
2022-08-28T01:35:44.873Z,15.86
2022-08-28T01:38:11.983Z,15.88
2022-08-28T01:40:47.073Z,15.83
2022-08-28T01:43:21.177Z,15.75
2022-08-28T01:45:53.294Z,15.81
2022-08-28T01:48:22.613Z,15.85
2022-08-28T01:50:50.550Z,15.77
2022-08-28T01:53:25.020Z,15.70
2022-08-28T01:55:55.617Z,15.76
2022-08-28T01:58:23.267Z,15.78
2022-08-28T02:00:50.002Z,15.74
2022-08-28T02:03:16.693Z,15.69
2022-08-28T02:05:43.800Z,15.64
2022-08-28T02:08:10.652Z,15.61
2022-08-28T02:10:40.050Z,15.68
2022-08-28T02:13:07.980Z,15.61
2022-08-28T02:15:36.169Z,15.62
2022-08-28T02:18:02.986Z,15.62
2022-08-28T02:20:29.558Z,15.64
2022-08-28T02:22:57.675Z,15.60
2022-08-28T02:25:25.538Z,15.48
2022-08-28T02:27:52.147Z,15.52
2022-08-28T02:30:19.498Z,15.50
2022-08-28T02:32:46.857Z,15.47
2022-08-28T02:35:16.431Z,15.46
2022-08-28T02:37:44.375Z,15.33
2022-08-28T02:40:14.601Z,15.24
2022-08-28T02:42:42.690Z,15.34
2022-08-28T02:45:11.691Z,15.35
2022-08-28T02:47:42.936Z,15.34
2022-08-28T02:50:13.039Z,15.37
2022-08-28T02:52:40.597Z,15.37
2022-08-28T02:55:08.799Z,15.29
2022-08-28T02:57:35.489Z,15.26
2022-08-28T03:00:07.280Z,15.35
2022-08-28T03:02:33.831Z,15.32
2022-08-28T03:05:00.966Z,15.30
2022-08-28T03:07:29.310Z,15.27
2022-08-28T03:09:56.471Z,15.30
2022-08-28T03:12:24.422Z,15.25
2022-08-28T03:14:54.859Z,15.28
2022-08-28T03:17:22.316Z,15.13
2022-08-28T03:19:50.280Z,15.27
2022-08-28T03:22:38.752Z,15.18
2022-08-28T03:25:06.386Z,15.20
2022-08-28T03:27:33.160Z,15.13
2022-08-28T03:29:59.885Z,15.16
2022-08-28T03:32:26.889Z,15.08
2022-08-28T03:34:55.916Z,15.13
2022-08-28T03:37:22.503Z,15.04
2022-08-28T03:39:49.346Z,15.10
2022-08-28T03:42:16.057Z,14.99
2022-08-28T03:44:42.689Z,15.10
2022-08-28T03:47:09.327Z,15.12
2022-08-28T03:49:36.842Z,15.07
2022-08-28T03:52:03.715Z,15.02
2022-08-28T03:54:31.702Z,15.06
2022-08-28T03:56:58.406Z,14.92
2022-08-28T03:59:26.649Z,14.96
2022-08-28T04:01:58.557Z,14.96
2022-08-28T04:04:25.107Z,14.95
2022-08-28T04:06:51.572Z,14.98
2022-08-28T04:09:18.189Z,14.94
2022-08-28T04:11:44.724Z,14.88
2022-08-28T04:14:11.869Z,14.91
2022-08-28T04:16:38.610Z,14.80
2022-08-28T04:19:05.277Z,14.78
2022-08-28T04:21:31.850Z,14.84
2022-08-28T04:23:58.478Z,14.70
2022-08-28T04:26:26.892Z,14.78
2022-08-28T04:28:55.066Z,14.52
2022-08-28T04:31:32.249Z,14.71
2022-08-28T04:34:00.821Z,14.72
2022-08-28T04:36:27.342Z,14.68
2022-08-28T04:38:55.005Z,14.67
2022-08-28T04:41:21.506Z,14.67
2022-08-28T04:43:48.733Z,14.65
2022-08-28T04:46:15.542Z,14.58
2022-08-28T04:48:42.685Z,14.70
2022-08-28T04:51:10.822Z,14.71
2022-08-28T04:53:38.355Z,14.67
2022-08-28T04:56:07.854Z,14.70
2022-08-28T04:58:34.824Z,14.63
2022-08-28T05:01:12.696Z,14.65
2022-08-28T05:03:40.050Z,14.66
2022-08-28T05:06:07.518Z,14.75
2022-08-28T05:08:34.030Z,14.71
2022-08-28T05:11:22.083Z,14.78
2022-08-28T05:14:01.179Z,14.80
2022-08-28T05:16:27.875Z,14.77
2022-08-28T05:18:54.449Z,14.76
2022-08-28T05:21:22.748Z,14.72
2022-08-28T05:23:51.364Z,14.81
2022-08-28T05:26:19.926Z,14.74
2022-08-28T05:28:47.643Z,14.85
2022-08-28T05:31:18.740Z,14.75
2022-08-28T05:33:47.333Z,14.89
2022-08-28T05:36:15.744Z,14.88
2022-08-28T05:38:42.457Z,14.83
2022-08-28T05:41:09.053Z,14.95
2022-08-28T05:43:36.876Z,14.99
2022-08-28T05:46:07.531Z,15.00
2022-08-28T05:48:37.133Z,14.92
2022-08-28T05:51:07.763Z,14.87
2022-08-28T05:53:36.224Z,15.16
2022-08-28T05:56:04.835Z,15.12
2022-08-28T05:58:32.456Z,15.28
2022-08-28T06:01:23.064Z,15.34
2022-08-28T06:03:57.999Z,15.39
2022-08-28T06:06:26.316Z,15.39
2022-08-28T06:08:58.779Z,15.44
2022-08-28T06:11:27.133Z,15.52
2022-08-28T06:14:01.490Z,15.52
2022-08-28T06:16:28.967Z,15.58
2022-08-28T06:18:55.967Z,15.46
2022-08-28T06:21:22.658Z,15.68
2022-08-28T06:23:49.154Z,15.78
2022-08-28T06:26:15.802Z,15.66
2022-08-28T06:28:42.281Z,15.85
2022-08-28T06:31:23.587Z,15.92
2022-08-28T06:33:56.297Z,16.05
2022-08-28T06:36:24.305Z,16.21
2022-08-28T06:38:51.419Z,16.17
2022-08-28T06:41:18.500Z,16.24
2022-08-28T06:43:45.042Z,16.34
2022-08-28T06:46:11.606Z,16.36
2022-08-28T06:48:38.196Z,16.55
2022-08-28T06:51:10.116Z,16.67
2022-08-28T06:53:38.289Z,16.84
2022-08-28T06:56:08.739Z,17.00
2022-08-28T06:58:38.099Z,17.08
2022-08-28T07:01:08.560Z,17.23
2022-08-28T07:03:35.161Z,17.36
2022-08-28T07:06:03.317Z,17.52
2022-08-28T07:08:30.277Z,17.69
2022-08-28T07:10:57.222Z,17.78
2022-08-28T07:13:23.730Z,18.01
2022-08-28T07:15:50.735Z,17.92
2022-08-28T07:18:18.501Z,18.21
2022-08-28T07:20:46.002Z,18.25
2022-08-28T07:23:12.768Z,18.39
2022-08-28T07:25:42.785Z,18.49
2022-08-28T07:28:09.393Z,18.51
2022-08-28T07:30:38.774Z,18.55
2022-08-28T07:33:05.472Z,18.57
2022-08-28T07:35:35.037Z,18.53
2022-08-28T07:38:01.622Z,18.68
2022-08-28T07:40:28.378Z,18.69
2022-08-28T07:43:13.445Z,18.94
2022-08-28T07:45:40.763Z,19.10
2022-08-28T07:48:11.452Z,19.26
2022-08-28T07:50:38.449Z,19.33
2022-08-28T07:53:08.235Z,19.30
2022-08-28T07:55:34.699Z,19.30
2022-08-28T07:58:01.644Z,19.52
2022-08-28T08:00:28.271Z,19.63
2022-08-28T08:02:54.944Z,19.79
2022-08-28T08:05:21.771Z,19.59
2022-08-28T08:07:48.478Z,19.74
2022-08-28T08:10:15.080Z,19.79
2022-08-28T08:12:47.250Z,20.05
2022-08-28T08:15:14.129Z,19.93
2022-08-28T08:17:40.698Z,20.24
2022-08-28T08:20:08.609Z,20.27
2022-08-28T08:22:35.828Z,20.39
2022-08-28T08:25:04.963Z,20.46
2022-08-28T08:27:38.770Z,20.30
2022-08-28T08:30:09.968Z,20.40
2022-08-28T08:32:39.184Z,20.58
2022-08-28T08:35:06.087Z,20.41
2022-08-28T08:37:32.812Z,20.53
2022-08-28T08:39:59.491Z,20.62
2022-08-28T08:42:32.999Z,20.76
2022-08-28T08:45:04.236Z,20.83
2022-08-28T08:47:47.584Z,20.86
2022-08-28T08:50:34.357Z,21.07
2022-08-28T08:53:23.522Z,21.22
2022-08-28T08:55:55.537Z,21.37
2022-08-28T08:58:32.537Z,21.47
2022-08-28T09:01:09.686Z,21.68
2022-08-28T09:04:24.703Z,21.86
2022-08-28T09:07:07.921Z,21.95
2022-08-28T09:09:56.420Z,22.10
2022-08-28T09:12:30.150Z,21.98
2022-08-28T09:15:05.522Z,22.09
2022-08-28T09:17:43.179Z,22.19
2022-08-28T09:20:12.268Z,22.25
2022-08-28T09:22:44.379Z,22.17
2022-08-28T09:25:13.125Z,22.27
2022-08-28T09:27:52.858Z,22.47
2022-08-28T09:30:30.637Z,22.84
2022-08-28T09:33:01.053Z,22.83
2022-08-28T09:35:30.778Z,23.02
2022-08-28T09:38:17.589Z,22.85
2022-08-28T09:41:02.952Z,22.94
2022-08-28T09:43:31.621Z,22.82
2022-08-28T09:46:31.908Z,22.97
2022-08-28T09:49:12.237Z,23.06
2022-08-28T09:51:39.927Z,23.03
2022-08-28T09:54:19.309Z,22.76
2022-08-28T09:56:46.133Z,22.59
2022-08-28T09:59:15.004Z,22.74
2022-08-28T10:01:44.702Z,23.22
2022-08-28T10:04:23.790Z,23.26
2022-08-28T10:07:03.283Z,23.60
2022-08-28T10:09:55.588Z,23.80
2022-08-28T10:12:33.634Z,23.53
2022-08-28T10:15:10.271Z,23.86
2022-08-28T10:17:40.168Z,23.93
2022-08-28T10:20:24.270Z,23.66
2022-08-28T10:23:03.120Z,23.37
2022-08-28T10:25:46.358Z,23.04
2022-08-28T10:28:39.122Z,22.69
2022-08-28T10:31:22.532Z,22.79
2022-08-28T10:33:51.836Z,23.32
2022-08-28T10:36:34.525Z,23.97
2022-08-28T10:39:13.921Z,23.93
2022-08-28T10:41:45.913Z,23.57
2022-08-28T10:44:19.931Z,23.44
2022-08-28T10:46:57.414Z,23.25
2022-08-28T10:49:31.700Z,23.25
2022-08-28T10:52:05.015Z,23.04
2022-08-28T10:54:55.106Z,22.70
2022-08-28T10:57:41.087Z,23.05
2022-08-28T11:00:19.786Z,23.15
2022-08-28T11:02:51.401Z,23.11
2022-08-28T11:05:28.668Z,22.88
2022-08-28T11:08:00.872Z,23.23
2022-08-28T11:10:34.986Z,23.79
2022-08-28T11:13:03.711Z,24.32
2022-08-28T11:15:36.745Z,24.41
2022-08-28T11:18:16.619Z,24.18
2022-08-28T11:20:56.141Z,23.80
2022-08-28T11:23:30.283Z,23.85
2022-08-28T11:26:03.930Z,24.20
2022-08-28T11:28:36.732Z,24.20
2022-08-28T11:31:06.343Z,24.39
2022-08-28T11:33:42.135Z,24.74
2022-08-28T11:36:20.680Z,25.17
2022-08-28T11:38:56.011Z,25.71
2022-08-28T11:41:23.158Z,25.85
2022-08-28T11:44:15.340Z,25.21
2022-08-28T11:46:50.666Z,24.67
2022-08-28T11:49:26.907Z,24.17
2022-08-28T11:52:24.434Z,24.09
2022-08-28T11:55:24.690Z,23.88
2022-08-28T12:00:49.525Z,24.34
2022-08-28T12:03:32.093Z,24.42
2022-08-28T12:06:00.651Z,24.71
2022-08-28T12:08:46.727Z,24.98
2022-08-28T12:11:41.420Z,25.37
2022-08-28T12:14:10.133Z,25.49
2022-08-28T12:17:21.584Z,25.65
2022-08-28T12:19:56.381Z,25.26
2022-08-28T12:22:26.587Z,24.93
2022-08-28T12:25:04.456Z,24.64
2022-08-28T12:27:32.010Z,24.42
2022-08-28T12:30:01.979Z,24.13
2022-08-28T12:32:41.527Z,24.14
2022-08-28T12:35:12.389Z,23.82
2022-08-28T12:37:54.151Z,23.95
2022-08-28T12:40:43.472Z,24.10
2022-08-28T12:43:15.398Z,24.36
2022-08-28T12:45:50.827Z,24.73
2022-08-28T12:48:52.835Z,25.28
2022-08-28T12:51:27.008Z,25.52
2022-08-28T12:53:56.269Z,25.53
2022-08-28T12:56:24.427Z,25.26
2022-08-28T12:58:51.441Z,24.90
2022-08-28T13:01:31.850Z,24.71
2022-08-28T13:04:04.807Z,24.87
2022-08-28T13:06:38.995Z,24.78
2022-08-28T13:09:14.103Z,25.03
2022-08-28T13:11:46.423Z,24.98
2022-08-28T13:14:12.970Z,24.92
2022-08-28T13:16:46.447Z,25.47
2022-08-28T13:19:27.780Z,25.43
2022-08-28T13:22:00.325Z,25.48
2022-08-28T13:24:30.853Z,25.79
2022-08-28T13:27:04.974Z,26.10
2022-08-28T13:29:32.408Z,26.15
2022-08-28T13:32:17.448Z,26.36
2022-08-28T13:35:09.470Z,25.97
2022-08-28T13:37:50.977Z,25.48
2022-08-28T13:40:55.734Z,24.60
2022-08-28T13:43:11.028Z,24.32
2022-08-28T13:45:42.652Z,24.71
2022-08-28T13:48:11.084Z,24.93
2022-08-28T13:50:40.129Z,25.47
2022-08-28T13:53:06.886Z,25.72
2022-08-28T13:55:34.985Z,25.97
2022-08-28T13:58:01.514Z,26.05
2022-08-28T14:00:31.434Z,25.96
2022-08-28T14:03:16.574Z,25.52
2022-08-28T14:05:44.500Z,25.39
2022-08-28T14:08:11.146Z,25.32
2022-08-28T14:10:37.697Z,25.05
2022-08-28T14:13:04.389Z,24.84
2022-08-28T14:15:30.898Z,24.52
2022-08-28T14:17:58.009Z,24.54
2022-08-28T14:20:24.807Z,25.22
2022-08-28T14:22:51.334Z,25.73
2022-08-28T14:25:18.058Z,26.11
2022-08-28T14:27:44.886Z,25.98
2022-08-28T14:30:11.675Z,25.70
2022-08-28T14:32:38.533Z,25.70
2022-08-28T14:35:05.912Z,25.26
2022-08-28T14:37:33.180Z,25.22
2022-08-28T14:39:59.733Z,25.20
2022-08-28T14:42:27.112Z,25.60
2022-08-28T14:44:53.981Z,25.90
2022-08-28T14:47:21.007Z,26.10
2022-08-28T14:49:47.790Z,26.36
2022-08-28T14:52:14.647Z,26.35
2022-08-28T14:54:41.193Z,26.14
2022-08-28T14:57:07.878Z,26.27
2022-08-28T14:59:34.520Z,26.24
2022-08-28T15:02:01.742Z,26.22
2022-08-28T15:04:34.863Z,26.25
2022-08-28T15:07:05.434Z,26.45
2022-08-28T15:09:35.148Z,26.78
2022-08-28T15:12:01.924Z,26.76
2022-08-28T15:14:28.488Z,26.27
2022-08-28T15:16:55.002Z,25.97
2022-08-28T15:19:23.314Z,26.00
2022-08-28T15:21:52.788Z,25.81
2022-08-28T15:24:22.879Z,25.97
2022-08-28T15:26:49.412Z,26.21
2022-08-28T15:29:16.549Z,26.56
2022-08-28T15:31:45.842Z,26.16
2022-08-28T15:34:16.182Z,26.12
2022-08-28T15:36:44.786Z,26.14
2022-08-28T15:39:44.859Z,26.52
2022-08-28T15:42:11.489Z,27.13
2022-08-28T15:44:38.943Z,27.18
2022-08-28T15:47:06.267Z,27.41
2022-08-28T15:49:43.592Z,27.69
2022-08-28T15:52:15.563Z,27.74
2022-08-28T15:54:42.732Z,27.73
2022-08-28T15:57:09.193Z,28.03
2022-08-28T15:59:48.698Z,28.26
2022-08-28T16:02:18.608Z,28.25
2022-08-28T16:04:45.282Z,28.47
2022-08-28T16:07:11.813Z,29.21
2022-08-28T16:09:38.480Z,29.47
2022-08-28T16:12:05.324Z,29.43
2022-08-28T16:14:33.077Z,29.37
2022-08-28T16:17:00.760Z,29.68
2022-08-28T16:19:32.640Z,29.81
2022-08-28T16:21:59.149Z,29.40
2022-08-28T16:24:25.697Z,29.86
2022-08-28T16:26:52.245Z,30.74
2022-08-28T16:29:18.901Z,30.52
2022-08-28T16:31:47.958Z,30.49
2022-08-28T16:34:15.692Z,30.91
2022-08-28T16:36:48.106Z,30.72
2022-08-28T16:39:14.692Z,31.09
2022-08-28T16:41:42.193Z,31.23
2022-08-28T16:44:08.832Z,31.39
2022-08-28T16:46:35.422Z,31.46
2022-08-28T16:49:02.532Z,31.53
2022-08-28T16:51:29.682Z,30.97
2022-08-28T16:53:56.448Z,31.36
2022-08-28T16:56:26.553Z,31.26
2022-08-28T16:58:53.502Z,31.07
2022-08-28T17:01:23.886Z,29.69
2022-08-28T17:03:51.962Z,27.32
2022-08-28T17:06:31.300Z,26.31
2022-08-28T17:08:58.385Z,25.30
2022-08-28T17:11:27.052Z,24.81
2022-08-28T17:13:53.759Z,24.43
2022-08-28T17:16:22.234Z,24.61
2022-08-28T17:18:52.394Z,24.32
2022-08-28T17:21:39.118Z,24.67
2022-08-28T17:24:06.736Z,25.60
2022-08-28T17:26:33.569Z,26.87
2022-08-28T17:29:00.111Z,28.31
2022-08-28T17:31:26.659Z,29.00
2022-08-28T17:33:53.241Z,28.94
2022-08-28T17:36:25.629Z,27.97
2022-08-28T17:39:05.590Z,26.29
2022-08-28T17:41:33.474Z,25.55
2022-08-28T17:44:00.721Z,24.61
2022-08-28T17:46:27.305Z,24.21
2022-08-28T17:48:55.486Z,23.77
2022-08-28T17:51:33.840Z,23.57
2022-08-28T17:54:10.009Z,23.22
2022-08-28T17:56:36.515Z,23.15
2022-08-28T17:59:03.216Z,23.15
2022-08-28T18:01:29.892Z,23.09
2022-08-28T18:03:56.450Z,23.04
2022-08-28T18:06:23.247Z,23.08
2022-08-28T18:08:52.022Z,23.03
2022-08-28T18:11:19.328Z,23.07
2022-08-28T18:13:46.473Z,22.89
2022-08-28T18:16:13.422Z,22.71
2022-08-28T18:18:40.515Z,22.62
2022-08-28T18:21:08.872Z,22.50
2022-08-28T18:23:35.449Z,22.38
2022-08-28T18:26:02.025Z,22.24
2022-08-28T18:28:28.720Z,22.02
2022-08-28T18:30:55.866Z,22.00
2022-08-28T18:33:24.401Z,22.07
2022-08-28T18:35:51.432Z,22.17
2022-08-28T18:38:20.541Z,22.12
2022-08-28T18:40:47.520Z,22.16
2022-08-28T18:43:14.100Z,22.06
2022-08-28T18:45:41.045Z,21.93
2022-08-28T18:48:10.405Z,21.89
2022-08-28T18:50:37.978Z,21.86
2022-08-28T18:53:05.422Z,21.58
2022-08-28T18:55:32.820Z,21.33
2022-08-28T18:58:01.705Z,21.22
2022-08-28T19:00:29.116Z,21.20
2022-08-28T19:02:55.991Z,21.24
2022-08-28T19:05:23.052Z,21.30
2022-08-28T19:07:50.466Z,21.25
2022-08-28T19:10:32.789Z,21.25
2022-08-28T19:13:01.231Z,21.27
2022-08-28T19:15:28.623Z,21.26
2022-08-28T19:17:55.521Z,21.22
2022-08-28T19:20:22.550Z,21.24
2022-08-28T19:22:49.118Z,21.29
2022-08-28T19:25:28.571Z,21.24
2022-08-28T19:27:59.337Z,21.21
2022-08-28T19:30:32.717Z,21.19
2022-08-28T19:33:01.162Z,21.18
2022-08-28T19:35:27.889Z,21.16
2022-08-28T19:37:54.693Z,21.08
2022-08-28T19:40:22.239Z,21.17
2022-08-28T19:42:50.191Z,21.07
2022-08-28T19:45:17.981Z,20.85
2022-08-28T19:47:44.860Z,20.76
2022-08-28T19:50:13.885Z,20.71
2022-08-28T19:52:41.420Z,20.70
2022-08-28T19:55:08.881Z,20.69
2022-08-28T19:57:35.547Z,20.68
2022-08-28T20:00:04.400Z,20.71
2022-08-28T20:02:31.057Z,20.61
2022-08-28T20:04:57.652Z,20.57
2022-08-28T20:07:24.982Z,20.40
2022-08-28T20:09:52.292Z,20.33
2022-08-28T20:12:19.660Z,20.19
2022-08-28T20:14:46.851Z,20.13
2022-08-28T20:17:14.083Z,20.11
2022-08-28T20:19:41.212Z,19.98
2022-08-28T20:22:07.938Z,19.96
2022-08-28T20:24:35.024Z,20.03
2022-08-28T20:27:01.553Z,19.88
2022-08-28T20:29:28.326Z,19.92
2022-08-28T20:31:54.939Z,19.83
2022-08-28T20:34:21.769Z,19.82
2022-08-28T20:36:49.016Z,19.87
2022-08-28T20:39:15.926Z,19.86
2022-08-28T20:41:44.324Z,19.82
2022-08-28T20:44:13.067Z,19.85
2022-08-28T20:46:41.969Z,19.81
2022-08-28T20:49:10.482Z,19.72
2022-08-28T20:51:55.559Z,19.68
2022-08-28T20:54:39.358Z,19.64
2022-08-28T20:57:09.404Z,19.64
2022-08-28T20:59:39.842Z,19.58
2022-08-28T21:02:16.651Z,19.51
2022-08-28T21:04:45.496Z,19.43
2022-08-28T21:07:13.901Z,19.30
2022-08-28T21:10:05.029Z,19.29
2022-08-28T21:12:27.579Z,19.32
2022-08-28T21:14:54.179Z,19.29
2022-08-28T21:17:29.785Z,19.14
2022-08-28T21:20:01.779Z,19.12
2022-08-28T21:22:31.325Z,19.03
2022-08-28T21:24:58.252Z,18.93
2022-08-28T21:27:24.992Z,18.94
2022-08-28T21:29:54.485Z,18.84
2022-08-28T21:32:21.087Z,18.91
2022-08-28T21:34:47.684Z,18.82
2022-08-28T21:37:15.349Z,18.67
2022-08-28T21:39:41.823Z,18.64
2022-08-28T21:42:08.454Z,18.56
2022-08-28T21:44:35.234Z,18.47
2022-08-28T21:47:01.727Z,18.52
2022-08-28T21:49:28.467Z,18.59
2022-08-28T21:51:54.967Z,18.58
2022-08-28T21:54:23.214Z,18.58
2022-08-28T21:56:50.602Z,18.63
2022-08-28T21:59:25.637Z,18.70
2022-08-28T22:01:57.392Z,18.68
2022-08-28T22:04:24.396Z,18.60
2022-08-28T22:06:50.877Z,18.45
2022-08-28T22:09:17.402Z,18.53
2022-08-28T22:11:44.053Z,18.51
2022-08-28T22:14:11.042Z,18.54
2022-08-28T22:16:37.627Z,18.48
2022-08-28T22:19:04.233Z,18.38
2022-08-28T22:21:50.527Z,18.37
2022-08-28T22:24:17.356Z,18.41
2022-08-28T22:26:44.105Z,18.30
2022-08-28T22:29:11.193Z,18.20
2022-08-28T22:31:45.456Z,18.23
2022-08-28T22:34:13.844Z,18.07
2022-08-28T22:36:40.337Z,18.05
2022-08-28T22:39:06.983Z,18.00
2022-08-28T22:41:33.657Z,17.86
2022-08-28T22:44:00.196Z,17.91
2022-08-28T22:46:27.838Z,18.02
2022-08-28T22:48:54.588Z,17.99
2022-08-28T22:51:21.124Z,17.95
2022-08-28T22:53:48.548Z,18.07
2022-08-28T22:56:17.102Z,18.10
2022-08-28T22:58:43.877Z,17.98
2022-08-28T23:01:19.570Z,17.83
2022-08-28T23:03:46.744Z,17.75
2022-08-28T23:06:13.905Z,17.68
2022-08-28T23:08:40.668Z,17.62
2022-08-28T23:11:07.246Z,17.64
2022-08-28T23:13:34.222Z,17.62
2022-08-28T23:16:01.476Z,17.58
2022-08-28T23:18:28.608Z,17.54
2022-08-28T23:20:55.632Z,17.65
2022-08-28T23:23:23.068Z,17.57
2022-08-28T23:25:50.505Z,17.49
2022-08-28T23:28:18.266Z,17.49
2022-08-28T23:30:49.746Z,17.49
2022-08-28T23:33:23.764Z,17.45
2022-08-28T23:35:51.440Z,17.39
2022-08-28T23:38:18.013Z,17.44
2022-08-28T23:40:44.569Z,17.32
2022-08-28T23:43:11.681Z,17.38
2022-08-28T23:45:42.390Z,17.43
2022-08-28T23:48:09.648Z,17.39
2022-08-28T23:50:39.801Z,17.25
2022-08-28T23:53:08.365Z,17.29
2022-08-28T23:55:35.949Z,17.26
2022-08-28T23:58:02.848Z,17.20
